createdAt,value
2022-11-14T00:01:08.399Z,7.34
2022-11-14T00:03:30.645Z,7.44
2022-11-14T00:05:52.721Z,7.43
2022-11-14T00:08:17.892Z,7.38
2022-11-14T00:10:39.613Z,7.30
2022-11-14T00:13:03.165Z,7.27
2022-11-14T00:15:25.197Z,7.13
2022-11-14T00:17:47.163Z,7.20
2022-11-14T00:20:11.877Z,7.24
2022-11-14T00:22:33.754Z,7.23
2022-11-14T00:24:55.381Z,7.20
2022-11-14T00:27:17.422Z,7.16
2022-11-14T00:29:40.738Z,7.08
2022-11-14T00:32:02.872Z,7.16
2022-11-14T00:34:25.046Z,7.21
2022-11-14T00:36:47.211Z,7.05
2022-11-14T00:39:13.019Z,7.02
2022-11-14T00:41:34.967Z,7.10
2022-11-14T00:43:56.933Z,6.91
2022-11-14T00:46:20.328Z,6.88
2022-11-14T00:48:43.026Z,6.71
2022-11-14T00:51:05.373Z,6.66
2022-11-14T00:53:28.180Z,6.50
2022-11-14T00:55:50.204Z,6.64
2022-11-14T00:58:12.468Z,6.64
2022-11-14T01:00:34.815Z,6.67
2022-11-14T01:02:58.388Z,6.62
2022-11-14T01:05:21.155Z,6.72
2022-11-14T01:07:43.142Z,6.44
2022-11-14T01:10:06.561Z,6.87
2022-11-14T01:12:28.529Z,6.86
2022-11-14T01:14:50.528Z,6.76
2022-11-14T01:17:14.010Z,6.78
2022-11-14T01:19:37.618Z,6.74
2022-11-14T01:22:04.833Z,6.80
2022-11-14T01:24:28.570Z,6.79
2022-11-14T01:26:51.005Z,6.71
2022-11-14T01:29:13.056Z,6.73
2022-11-14T01:31:35.376Z,6.85
2022-11-14T01:33:58.657Z,6.85
2022-11-14T01:36:22.730Z,6.65
2022-11-14T01:38:45.188Z,6.67
2022-11-14T01:41:12.679Z,6.55
2022-11-14T01:43:35.619Z,6.59
2022-11-14T01:46:00.333Z,6.55
2022-11-14T01:48:26.717Z,6.44
2022-11-14T01:50:53.228Z,6.28
2022-11-14T01:53:16.575Z,6.49
2022-11-14T01:55:38.858Z,6.41
2022-11-14T01:58:01.562Z,6.47
2022-11-14T02:00:23.695Z,6.51
2022-11-14T02:02:46.518Z,6.59
2022-11-14T02:05:13.115Z,6.49
2022-11-14T02:07:38.354Z,6.71
2022-11-14T02:10:04.801Z,6.67
2022-11-14T02:12:26.502Z,6.49
2022-11-14T02:14:50.762Z,6.61
2022-11-14T02:17:28.903Z,6.62
2022-11-14T02:19:54.307Z,6.66
2022-11-14T02:22:17.813Z,6.59
2022-11-14T02:24:39.956Z,6.66
2022-11-14T02:27:02.016Z,6.63
2022-11-14T02:29:23.777Z,6.59
2022-11-14T02:31:45.810Z,6.50
2022-11-14T02:34:07.918Z,6.57
2022-11-14T02:36:30.123Z,6.56
2022-11-14T02:38:53.616Z,6.47
2022-11-14T02:41:15.543Z,6.53
2022-11-14T02:43:38.290Z,6.50
2022-11-14T02:46:05.271Z,6.41
2022-11-14T02:48:28.529Z,6.36
2022-11-14T02:50:51.770Z,6.39
2022-11-14T02:53:13.828Z,6.37
2022-11-14T02:55:38.516Z,6.17
2022-11-14T02:58:00.574Z,6.05
2022-11-14T03:00:23.090Z,5.98
2022-11-14T03:02:45.359Z,6.00
2022-11-14T03:05:07.776Z,5.80
2022-11-14T03:07:29.724Z,5.84
2022-11-14T03:09:51.734Z,5.85
2022-11-14T03:12:18.914Z,5.93
2022-11-14T03:14:42.437Z,5.93
2022-11-14T03:17:04.680Z,5.87
2022-11-14T03:19:26.653Z,5.81
2022-11-14T03:21:48.654Z,5.82
2022-11-14T03:24:11.699Z,5.92
2022-11-14T03:26:34.342Z,5.90
2022-11-14T03:28:57.754Z,5.81
2022-11-14T03:31:19.899Z,5.77
2022-11-14T03:33:41.901Z,5.74
2022-11-14T03:36:05.093Z,5.58
2022-11-14T03:38:26.923Z,5.60
2022-11-14T03:40:50.094Z,5.60
2022-11-14T03:43:12.140Z,5.61
2022-11-14T03:45:35.259Z,5.56
2022-11-14T03:47:57.522Z,5.50
2022-11-14T03:50:19.597Z,5.54
2022-11-14T03:52:41.807Z,5.43
2022-11-14T03:55:04.281Z,5.52
2022-11-14T03:57:31.512Z,5.54
2022-11-14T03:59:53.189Z,5.44
2022-11-14T04:02:16.592Z,5.42
2022-11-14T04:04:38.526Z,5.44
2022-11-14T04:07:01.282Z,5.39
2022-11-14T04:09:23.190Z,5.36
2022-11-14T04:11:45.258Z,5.36
2022-11-14T04:14:07.093Z,5.32
2022-11-14T04:16:31.882Z,5.26
2022-11-14T04:18:57.616Z,5.26
2022-11-14T04:21:19.742Z,5.17
2022-11-14T04:23:41.904Z,5.24
2022-11-14T04:26:03.999Z,5.17
2022-11-14T04:28:26.231Z,5.18
2022-11-14T04:30:48.274Z,5.24
2022-11-14T04:33:10.126Z,5.30
2022-11-14T04:35:33.589Z,5.32
2022-11-14T04:37:56.045Z,5.31
2022-11-14T04:40:17.892Z,5.30
2022-11-14T04:42:39.963Z,5.34
2022-11-14T04:45:02.009Z,5.39
2022-11-14T04:47:26.146Z,5.48
2022-11-14T04:49:48.213Z,5.46
2022-11-14T04:52:11.896Z,5.43
2022-11-14T04:54:33.860Z,5.04
2022-11-14T04:56:55.865Z,5.42
2022-11-14T04:59:20.826Z,5.45
2022-11-14T05:01:43.979Z,5.39
2022-11-14T05:04:06.412Z,5.31
2022-11-14T05:06:28.726Z,5.37
2022-11-14T05:08:52.235Z,5.30
2022-11-14T05:11:15.532Z,5.28
2022-11-14T05:13:37.803Z,5.43
2022-11-14T05:16:00.408Z,5.50
2022-11-14T05:18:22.678Z,5.51
2022-11-14T05:20:44.971Z,5.34
2022-11-14T05:23:07.379Z,5.46
2022-11-14T05:25:30.941Z,5.53
2022-11-14T05:27:52.810Z,5.64
2022-11-14T05:30:14.965Z,5.53
2022-11-14T05:32:37.027Z,5.52
2022-11-14T05:34:58.936Z,5.53
2022-11-14T05:37:21.124Z,5.62
2022-11-14T05:39:43.075Z,5.64
2022-11-14T05:42:06.717Z,5.52
2022-11-14T05:44:28.834Z,5.56
2022-11-14T05:46:50.693Z,5.55
2022-11-14T05:49:15.796Z,5.64
2022-11-14T05:51:43.531Z,5.60
2022-11-14T05:54:06.093Z,5.60
2022-11-14T05:56:28.139Z,5.70
2022-11-14T05:58:53.946Z,5.80
2022-11-14T06:01:17.781Z,5.88
2022-11-14T06:03:42.772Z,5.84
2022-11-14T06:06:06.855Z,5.84
2022-11-14T06:08:30.067Z,5.57
2022-11-14T06:10:52.045Z,5.56
2022-11-14T06:13:14.148Z,5.53
2022-11-14T06:15:37.717Z,5.51
2022-11-14T06:17:59.844Z,5.56
2022-11-14T06:20:22.389Z,5.68
2022-11-14T06:22:44.448Z,5.85
2022-11-14T06:25:07.761Z,6.60
2022-11-14T06:27:30.006Z,6.31
2022-11-14T06:29:52.187Z,6.11
2022-11-14T06:32:16.121Z,5.94
2022-11-14T06:34:38.321Z,5.96
2022-11-14T06:37:00.558Z,5.89
2022-11-14T06:39:22.254Z,5.91
2022-11-14T06:41:44.236Z,5.76
2022-11-14T06:44:09.025Z,5.65
2022-11-14T06:46:31.067Z,5.60
2022-11-14T06:48:54.720Z,5.65
2022-11-14T06:51:18.183Z,5.58
2022-11-14T06:53:40.401Z,5.66
2022-11-14T06:56:05.324Z,5.51
2022-11-14T06:58:28.805Z,5.31
2022-11-14T07:00:51.058Z,5.17
2022-11-14T07:03:13.395Z,5.09
2022-11-14T07:05:36.740Z,5.07
2022-11-14T07:07:58.778Z,5.18
2022-11-14T07:10:20.817Z,5.19
2022-11-14T07:12:42.712Z,4.92
2022-11-14T07:15:05.347Z,5.45
2022-11-14T07:17:31.240Z,5.43
2022-11-14T07:19:53.680Z,5.55
2022-11-14T07:22:17.276Z,5.55
2022-11-14T07:24:40.157Z,5.57
2022-11-14T07:27:02.107Z,5.66
2022-11-14T07:29:23.924Z,5.75
2022-11-14T07:31:45.896Z,5.73
2022-11-14T07:34:09.369Z,5.85
2022-11-14T07:36:31.526Z,5.87
2022-11-14T07:38:55.472Z,5.98
2022-11-14T07:41:18.142Z,6.00
2022-11-14T07:43:40.295Z,6.02
2022-11-14T07:46:03.189Z,6.06
2022-11-14T07:48:25.255Z,6.14
2022-11-14T07:50:47.619Z,6.34
2022-11-14T07:53:10.403Z,6.00
2022-11-14T07:55:33.459Z,6.26
2022-11-14T07:57:56.268Z,6.26
2022-11-14T08:00:19.375Z,6.26
2022-11-14T08:02:41.343Z,6.27
2022-11-14T08:05:03.107Z,6.19
2022-11-14T08:07:25.146Z,6.31
2022-11-14T08:09:47.039Z,6.32
2022-11-14T08:12:10.516Z,6.34
2022-11-14T08:14:33.240Z,6.38
2022-11-14T08:16:55.467Z,6.40
2022-11-14T08:19:17.615Z,6.40
2022-11-14T08:21:40.234Z,6.46
2022-11-14T08:24:02.512Z,6.51
2022-11-14T08:26:24.238Z,6.60
2022-11-14T08:28:47.263Z,6.61
2022-11-14T08:31:13.639Z,6.60
2022-11-14T08:33:35.424Z,6.60
2022-11-14T08:36:01.045Z,6.72
2022-11-14T08:38:23.644Z,6.73
2022-11-14T08:40:46.421Z,6.78
2022-11-14T08:43:09.714Z,6.68
2022-11-14T08:45:32.924Z,6.80
2022-11-14T08:47:55.625Z,6.77
2022-11-14T08:50:18.017Z,6.81
2022-11-14T08:52:40.100Z,6.87
2022-11-14T08:55:01.996Z,6.84
2022-11-14T08:57:23.927Z,6.83
2022-11-14T08:59:46.233Z,6.81
2022-11-14T09:02:11.379Z,6.73
2022-11-14T09:04:33.372Z,6.69
2022-11-14T09:06:55.417Z,6.77
2022-11-14T09:09:17.396Z,6.76
2022-11-14T09:11:39.495Z,6.88
2022-11-14T09:14:02.696Z,6.89
2022-11-14T09:16:24.594Z,6.91
2022-11-14T09:18:47.662Z,7.00
2022-11-14T09:21:11.438Z,7.03
2022-11-14T09:23:33.828Z,7.08
2022-11-14T09:25:57.001Z,7.06
2022-11-14T09:28:18.792Z,7.06
2022-11-14T09:30:42.004Z,7.14
2022-11-14T09:33:11.237Z,7.13
2022-11-14T09:35:36.347Z,7.16
2022-11-14T09:38:02.438Z,7.27
2022-11-14T09:40:24.229Z,7.34
2022-11-14T09:43:05.757Z,7.38
2022-11-14T09:45:29.194Z,7.46
2022-11-14T09:47:55.415Z,7.35
2022-11-14T09:50:25.736Z,7.34
2022-11-14T09:52:55.137Z,7.36
2022-11-14T09:55:19.883Z,7.38
2022-11-14T09:57:44.670Z,7.41
2022-11-14T10:00:14.877Z,7.43
2022-11-14T10:02:44.196Z,7.43
2022-11-14T10:05:22.797Z,6.94
2022-11-14T10:08:07.035Z,7.68
2022-11-14T10:10:44.426Z,7.67
2022-11-14T10:13:14.597Z,7.65
2022-11-14T10:15:44.454Z,7.75
2022-11-14T10:18:21.017Z,7.81
2022-11-14T10:20:48.159Z,7.86
2022-11-14T10:23:26.435Z,7.79
2022-11-14T10:25:56.352Z,7.82
2022-11-14T10:28:49.749Z,7.76
2022-11-14T10:31:21.816Z,7.81
2022-11-14T10:33:53.102Z,7.83
2022-11-14T10:36:24.506Z,7.81
2022-11-14T10:38:54.619Z,7.88
2022-11-14T10:41:34.554Z,7.93
2022-11-14T10:43:59.345Z,7.95
2022-11-14T10:46:26.527Z,7.93
2022-11-14T10:48:53.196Z,7.98
2022-11-14T10:51:23.628Z,8.02
2022-11-14T10:53:53.134Z,7.99
2022-11-14T10:56:15.598Z,7.90
2022-11-14T10:58:47.818Z,8.05
2022-11-14T11:01:34.024Z,8.18
2022-11-14T11:03:56.000Z,8.40
2022-11-14T11:06:27.341Z,8.45
2022-11-14T11:09:08.265Z,8.22
2022-11-14T11:11:33.071Z,8.34
2022-11-14T11:13:56.380Z,8.37
2022-11-14T11:16:22.487Z,8.49
2022-11-14T11:18:48.491Z,8.43
2022-11-14T11:21:14.293Z,8.48
2022-11-14T11:23:37.621Z,8.52
2022-11-14T11:26:05.620Z,8.47
2022-11-14T11:28:30.241Z,8.49
2022-11-14T11:30:57.446Z,8.48
2022-11-14T11:33:25.597Z,8.52
2022-11-14T11:35:50.702Z,8.42
2022-11-14T11:38:15.820Z,8.60
2022-11-14T11:40:39.584Z,8.42
2022-11-14T11:43:37.426Z,8.64
2022-11-14T11:45:50.910Z,8.73
2022-11-14T11:48:18.332Z,8.72
2022-11-14T11:50:41.407Z,8.99
2022-11-14T11:53:13.835Z,8.90
2022-11-14T11:55:42.232Z,8.88
2022-11-14T11:58:12.710Z,8.74
2022-11-14T12:00:34.890Z,8.74
2022-11-14T12:02:57.892Z,8.75
2022-11-14T12:05:27.367Z,8.73
2022-11-14T12:07:56.012Z,8.69
2022-11-14T12:10:23.710Z,8.76
2022-11-14T12:13:15.887Z,8.79
2022-11-14T12:15:49.487Z,8.95
2022-11-14T12:18:25.117Z,9.11
2022-11-14T12:21:06.685Z,9.36
2022-11-14T12:24:05.134Z,9.50
2022-11-14T12:26:44.683Z,9.54
2022-11-14T12:29:27.446Z,9.35
2022-11-14T12:31:53.272Z,9.35
2022-11-14T12:34:21.136Z,9.15
2022-11-14T12:36:45.712Z,9.02
2022-11-14T12:39:07.822Z,8.94
2022-11-14T12:41:33.342Z,9.01
2022-11-14T12:44:20.736Z,9.09
2022-11-14T12:47:18.271Z,9.08
2022-11-14T12:50:02.229Z,9.01
2022-11-14T12:52:48.608Z,9.01
2022-11-14T12:56:06.923Z,8.95
2022-11-14T12:58:56.242Z,8.81
2022-11-14T13:01:28.553Z,8.74
2022-11-14T13:04:07.203Z,8.69
2022-11-14T13:06:40.947Z,8.67
2022-11-14T13:09:34.999Z,8.74
2022-11-14T13:12:16.449Z,8.72
2022-11-14T13:15:07.992Z,8.74
2022-11-14T13:17:47.814Z,8.75
2022-11-14T13:20:46.131Z,8.79
2022-11-14T13:23:51.152Z,8.90
2022-11-14T13:26:51.530Z,8.94
2022-11-14T13:29:57.706Z,8.99
2022-11-14T13:33:02.240Z,9.01
2022-11-14T13:35:51.018Z,9.00
2022-11-14T13:38:48.212Z,8.75
2022-11-14T13:41:27.314Z,9.04
2022-11-14T13:44:10.885Z,8.62
2022-11-14T13:46:53.138Z,8.33
2022-11-14T13:49:30.425Z,8.84
2022-11-14T13:51:54.809Z,8.90
2022-11-14T13:54:18.616Z,9.02
2022-11-14T13:56:57.250Z,9.01
2022-11-14T13:59:41.202Z,9.06
2022-11-14T14:02:26.458Z,9.05
2022-11-14T14:04:59.488Z,9.11
2022-11-14T14:07:32.772Z,9.04
2022-11-14T14:10:04.099Z,9.04
2022-11-14T14:12:52.193Z,8.73
2022-11-14T14:15:26.140Z,9.10
2022-11-14T14:17:59.926Z,9.07
2022-11-14T14:20:32.460Z,9.11
2022-11-14T14:23:01.150Z,9.04
2022-11-14T14:25:29.383Z,9.13
2022-11-14T14:28:01.527Z,9.17
2022-11-14T14:30:25.267Z,9.19
2022-11-14T14:33:10.868Z,9.20
2022-11-14T14:35:40.140Z,9.17
2022-11-14T14:38:03.311Z,9.16
2022-11-14T14:40:27.104Z,9.16
2022-11-14T14:42:49.992Z,9.16
2022-11-14T14:45:17.499Z,9.15
2022-11-14T14:47:43.332Z,9.20
2022-11-14T14:50:09.426Z,9.17
2022-11-14T14:52:33.619Z,9.14
2022-11-14T14:54:56.484Z,9.17
2022-11-14T14:57:23.170Z,9.13
2022-11-14T14:59:45.306Z,9.12
2022-11-14T15:02:16.993Z,9.05
2022-11-14T15:04:41.937Z,8.95
2022-11-14T15:07:05.003Z,9.07
2022-11-14T15:09:29.635Z,9.14
2022-11-14T15:11:53.992Z,9.12
2022-11-14T15:14:18.945Z,9.05
2022-11-14T15:16:42.163Z,9.00
2022-11-14T15:19:05.138Z,9.02
2022-11-14T15:21:30.226Z,9.03
2022-11-14T15:24:01.198Z,8.99
2022-11-14T15:26:23.155Z,8.99
2022-11-14T15:28:45.821Z,8.91
2022-11-14T15:31:07.897Z,9.02
2022-11-14T15:33:31.578Z,9.00
2022-11-14T15:36:07.057Z,8.72
2022-11-14T15:38:53.797Z,8.98
2022-11-14T15:41:20.753Z,8.98
2022-11-14T15:43:51.323Z,9.00
2022-11-14T15:46:28.715Z,8.96
2022-11-14T15:48:51.244Z,8.96
2022-11-14T15:51:13.275Z,8.95
2022-11-14T15:53:39.159Z,8.92
2022-11-14T15:56:00.966Z,8.99
2022-11-14T15:58:30.144Z,8.95
2022-11-14T16:00:54.236Z,8.94
2022-11-14T16:03:19.005Z,8.91
2022-11-14T16:05:40.660Z,8.67
2022-11-14T16:08:02.802Z,8.95
2022-11-14T16:10:28.303Z,8.93
2022-11-14T16:12:52.700Z,8.92
2022-11-14T16:15:14.799Z,8.95
2022-11-14T16:17:38.204Z,8.90
2022-11-14T16:20:00.036Z,8.93
2022-11-14T16:22:21.981Z,8.98
2022-11-14T16:24:43.912Z,8.98
2022-11-14T16:27:07.173Z,8.95
2022-11-14T16:29:29.395Z,8.99
2022-11-14T16:31:52.441Z,8.95
2022-11-14T16:34:18.967Z,8.99
2022-11-14T16:36:41.219Z,9.01
2022-11-14T16:39:10.346Z,9.01
2022-11-14T16:41:32.111Z,8.95
2022-11-14T16:43:57.321Z,8.99
2022-11-14T16:46:19.500Z,8.93
2022-11-14T16:48:41.356Z,8.95
2022-11-14T16:51:14.820Z,8.96
2022-11-14T16:53:42.515Z,8.94
2022-11-14T16:56:05.182Z,8.98
2022-11-14T16:58:27.170Z,8.91
2022-11-14T17:00:50.567Z,8.89
2022-11-14T17:03:12.524Z,8.89
2022-11-14T17:05:34.543Z,8.94
2022-11-14T17:07:57.412Z,8.97
2022-11-14T17:10:19.550Z,8.91
2022-11-14T17:12:41.515Z,8.92
2022-11-14T17:15:03.410Z,8.92
2022-11-14T17:17:26.919Z,8.91
2022-11-14T17:19:48.983Z,8.88
2022-11-14T17:22:11.112Z,8.87
2022-11-14T17:24:33.299Z,8.84
2022-11-14T17:26:55.712Z,8.89
2022-11-14T17:29:17.488Z,8.85
2022-11-14T17:31:44.435Z,8.83
2022-11-14T17:34:11.698Z,8.88
2022-11-14T17:36:34.913Z,8.90
2022-11-14T17:38:57.483Z,8.89
2022-11-14T17:41:19.413Z,8.90
2022-11-14T17:43:41.635Z,8.95
2022-11-14T17:46:05.002Z,8.94
2022-11-14T17:48:27.762Z,8.90
2022-11-14T17:50:51.295Z,8.87
2022-11-14T17:53:13.440Z,8.88
2022-11-14T17:55:35.685Z,8.75
2022-11-14T17:57:57.777Z,8.89
2022-11-14T18:00:20.142Z,8.91
2022-11-14T18:02:41.778Z,8.87
2022-11-14T18:05:03.757Z,8.90
2022-11-14T18:07:27.231Z,8.88
2022-11-14T18:09:49.254Z,8.90
2022-11-14T18:12:11.170Z,8.86
2022-11-14T18:14:33.141Z,8.81
2022-11-14T18:17:12.203Z,8.81
2022-11-14T18:19:36.709Z,8.75
2022-11-14T18:21:58.632Z,8.74
2022-11-14T18:24:23.578Z,8.72
2022-11-14T18:26:45.646Z,8.72
2022-11-14T18:29:07.970Z,8.70
2022-11-14T18:31:30.443Z,8.69
2022-11-14T18:33:52.454Z,8.60
2022-11-14T18:36:17.637Z,8.68
2022-11-14T18:38:40.053Z,8.67
2022-11-14T18:41:07.483Z,8.69
2022-11-14T18:43:32.211Z,8.68
2022-11-14T18:45:54.891Z,8.61
2022-11-14T18:48:16.935Z,8.61
2022-11-14T18:50:39.547Z,8.62
2022-11-14T18:53:01.555Z,8.58
2022-11-14T18:55:23.443Z,8.54
2022-11-14T18:57:46.703Z,8.54
2022-11-14T19:00:10.339Z,8.53
2022-11-14T19:02:32.079Z,8.49
2022-11-14T19:04:53.999Z,8.48
2022-11-14T19:07:16.004Z,8.49
2022-11-14T19:09:37.918Z,8.52
2022-11-14T19:12:17.409Z,8.55
2022-11-14T19:14:40.778Z,8.56
2022-11-14T19:17:02.826Z,8.58
2022-11-14T19:19:24.811Z,8.55
2022-11-14T19:21:49.265Z,8.39
2022-11-14T19:24:11.508Z,8.52
2022-11-14T19:26:33.633Z,8.54
2022-11-14T19:28:55.999Z,8.49
2022-11-14T19:31:20.886Z,8.48
2022-11-14T19:33:44.873Z,8.46
2022-11-14T19:36:07.726Z,8.52
2022-11-14T19:38:29.404Z,8.55
2022-11-14T19:40:51.795Z,8.56
2022-11-14T19:43:13.807Z,8.67
2022-11-14T19:45:36.247Z,8.64
2022-11-14T19:47:59.874Z,8.59
2022-11-14T19:50:24.593Z,8.47
2022-11-14T19:52:46.766Z,8.48
2022-11-14T19:55:08.999Z,8.46
2022-11-14T19:57:31.517Z,8.42
2022-11-14T19:59:53.351Z,8.42
2022-11-14T20:02:16.599Z,8.38
2022-11-14T20:04:39.747Z,8.37
2022-11-14T20:07:01.788Z,8.36
2022-11-14T20:09:24.190Z,8.38
2022-11-14T20:11:46.224Z,8.40
2022-11-14T20:14:08.465Z,8.40
2022-11-14T20:16:32.482Z,8.35
2022-11-14T20:18:59.011Z,8.34
2022-11-14T20:21:24.974Z,8.40
2022-11-14T20:23:47.467Z,8.39
2022-11-14T20:26:12.105Z,8.41
2022-11-14T20:28:34.934Z,8.30
2022-11-14T20:31:00.786Z,8.41
2022-11-14T20:33:22.712Z,8.39
2022-11-14T20:35:45.354Z,8.38
2022-11-14T20:38:08.924Z,8.47
2022-11-14T20:40:31.109Z,8.47
2022-11-14T20:42:52.737Z,8.54
2022-11-14T20:45:14.836Z,8.51
2022-11-14T20:47:37.155Z,8.44
2022-11-14T20:49:58.929Z,8.43
2022-11-14T20:52:21.142Z,8.52
2022-11-14T20:54:44.502Z,8.58
2022-11-14T20:57:06.587Z,8.66
2022-11-14T20:59:28.632Z,8.74
2022-11-14T21:01:50.754Z,8.72
2022-11-14T21:04:12.889Z,8.74
2022-11-14T21:06:35.334Z,8.65
2022-11-14T21:08:57.499Z,8.66
2022-11-14T21:11:22.385Z,8.67
2022-11-14T21:13:59.691Z,8.77
2022-11-14T21:16:22.245Z,8.81
2022-11-14T21:18:47.996Z,8.89
2022-11-14T21:21:13.035Z,8.90
2022-11-14T21:23:35.552Z,8.90
2022-11-14T21:26:06.356Z,8.91
2022-11-14T21:28:30.994Z,8.94
2022-11-14T21:30:54.810Z,8.97
2022-11-14T21:33:16.738Z,8.95
2022-11-14T21:35:38.654Z,8.94
2022-11-14T21:38:00.619Z,9.00
2022-11-14T21:40:23.110Z,9.09
2022-11-14T21:42:45.004Z,9.12
2022-11-14T21:45:10.478Z,9.18
2022-11-14T21:47:33.818Z,9.19
2022-11-14T21:50:00.974Z,9.24
2022-11-14T21:52:23.262Z,9.24
2022-11-14T21:54:45.145Z,9.28
2022-11-14T21:57:10.305Z,9.31
2022-11-14T21:59:32.308Z,9.36
2022-11-14T22:02:13.523Z,9.40
2022-11-14T22:04:36.179Z,9.44
2022-11-14T22:06:58.497Z,9.48
2022-11-14T22:09:20.563Z,9.50
2022-11-14T22:11:42.514Z,9.51
2022-11-14T22:14:04.480Z,9.50
2022-11-14T22:16:26.578Z,9.54
2022-11-14T22:18:52.673Z,9.60
2022-11-14T22:21:14.958Z,9.50
2022-11-14T22:23:36.977Z,9.64
2022-11-14T22:26:00.564Z,9.64
2022-11-14T22:28:23.114Z,9.68
2022-11-14T22:30:45.288Z,9.66
2022-11-14T22:33:07.343Z,9.73
2022-11-14T22:35:30.641Z,9.74
2022-11-14T22:37:52.631Z,9.78
2022-11-14T22:40:14.718Z,9.81
2022-11-14T22:42:36.625Z,9.84
2022-11-14T22:44:58.531Z,9.87
2022-11-14T22:47:20.645Z,9.86
2022-11-14T22:49:42.724Z,9.87
2022-11-14T22:52:06.294Z,9.92
2022-11-14T22:54:28.387Z,9.94
2022-11-14T22:56:50.230Z,9.97
2022-11-14T22:59:12.167Z,9.97
2022-11-14T23:01:34.283Z,10.00
2022-11-14T23:03:58.234Z,10.00
2022-11-14T23:06:20.743Z,10.00
2022-11-14T23:08:44.663Z,9.99
2022-11-14T23:11:10.901Z,10.01
2022-11-14T23:13:37.095Z,10.04
2022-11-14T23:15:58.822Z,10.10
2022-11-14T23:18:24.003Z,10.11
2022-11-14T23:20:46.921Z,10.15
2022-11-14T23:23:08.639Z,10.19
2022-11-14T23:25:31.961Z,10.19
2022-11-14T23:27:53.938Z,10.21
2022-11-14T23:30:16.525Z,10.23
2022-11-14T23:32:38.427Z,10.23
2022-11-14T23:35:00.335Z,10.25
2022-11-14T23:37:22.341Z,10.28
2022-11-14T23:39:44.459Z,10.36
2022-11-14T23:42:07.886Z,10.36
2022-11-14T23:44:29.640Z,10.38
2022-11-14T23:46:51.807Z,10.43
2022-11-14T23:49:14.062Z,10.44
2022-11-14T23:51:35.767Z,10.46
2022-11-14T23:53:57.651Z,10.53
2022-11-14T23:56:19.813Z,10.44
2022-11-14T23:58:43.395Z,10.58
